sensor_id;sensor_type;location;lat;lon;timestamp;pressure;altitude;pressure_sealevel;temperature;humidity
64853;BME280;56050;55.558;-4.644;2023-02-19T00:02:11;102129.91;;;8.13;69.55
64853;BME280;56050;55.558;-4.644;2023-02-19T00:04:37;102123.31;;;8.10;69.94
64853;BME280;56050;55.558;-4.644;2023-02-19T00:07:02;102134.38;;;8.09;69.58
64853;BME280;56050;55.558;-4.644;2023-02-19T00:09:28;102138.31;;;8.11;69.36
64853;BME280;56050;55.558;-4.644;2023-02-19T00:11:53;102136.72;;;8.10;69.37
64853;BME280;56050;55.558;-4.644;2023-02-19T00:14:20;102140.06;;;8.07;69.33
64853;BME280;56050;55.558;-4.644;2023-02-19T00:16:45;102148.91;;;8.08;69.07
64853;BME280;56050;55.558;-4.644;2023-02-19T00:19:14;102154.94;;;8.05;68.98
64853;BME280;56050;55.558;-4.644;2023-02-19T00:21:40;102158.75;;;8.04;69.13
64853;BME280;56050;55.558;-4.644;2023-02-19T00:24:07;102163.66;;;8.02;69.20
64853;BME280;56050;55.558;-4.644;2023-02-19T00:26:34;102164.44;;;8.02;69.21
64853;BME280;56050;55.558;-4.644;2023-02-19T00:29:02;102165.56;;;8.01;69.13
64853;BME280;56050;55.558;-4.644;2023-02-19T00:31:29;102168.72;;;8.03;69.14
64853;BME280;56050;55.558;-4.644;2023-02-19T00:34:00;102172.06;;;8.00;69.20
64853;BME280;56050;55.558;-4.644;2023-02-19T00:36:27;102178.22;;;8.01;69.53
64853;BME280;56050;55.558;-4.644;2023-02-19T00:38:53;102180.22;;;8.04;69.61
64853;BME280;56050;55.558;-4.644;2023-02-19T00:41:20;102181.00;;;8.04;69.45
64853;BME280;56050;55.558;-4.644;2023-02-19T00:43:47;102189.03;;;8.04;69.50
64853;BME280;56050;55.558;-4.644;2023-02-19T00:46:14;102189.84;;;8.05;69.52
64853;BME280;56050;55.558;-4.644;2023-02-19T00:48:39;102188.59;;;8.02;69.81
64853;BME280;56050;55.558;-4.644;2023-02-19T00:51:04;102181.66;;;8.01;69.80
64853;BME280;56050;55.558;-4.644;2023-02-19T00:53:30;102185.13;;;8.02;69.64
64853;BME280;56050;55.558;-4.644;2023-02-19T00:55:55;102201.22;;;8.02;69.73
64853;BME280;56050;55.558;-4.644;2023-02-19T00:58:21;102198.53;;;8.02;69.63
64853;BME280;56050;55.558;-4.644;2023-02-19T01:00:46;102198.91;;;8.00;69.91
64853;BME280;56050;55.558;-4.644;2023-02-19T01:03:11;102197.00;;;8.01;69.74
64853;BME280;56050;55.558;-4.644;2023-02-19T01:05:37;102196.22;;;8.00;69.86
64853;BME280;56050;55.558;-4.644;2023-02-19T01:08:02;102202.03;;;8.02;69.71
64853;BME280;56050;55.558;-4.644;2023-02-19T01:10:28;102201.69;;;8.04;69.71
64853;BME280;56050;55.558;-4.644;2023-02-19T01:12:53;102221.25;;;8.04;69.87
64853;BME280;56050;55.558;-4.644;2023-02-19T01:15:19;102230.44;;;8.03;70.00
64853;BME280;56050;55.558;-4.644;2023-02-19T01:17:44;102225.50;;;8.05;69.99
64853;BME280;56050;55.558;-4.644;2023-02-19T01:20:09;102234.44;;;8.09;70.01
64853;BME280;56050;55.558;-4.644;2023-02-19T01:22:35;102228.09;;;8.14;69.84
64853;BME280;56050;55.558;-4.644;2023-02-19T01:25:00;102228.91;;;8.14;69.79
64853;BME280;56050;55.558;-4.644;2023-02-19T01:27:26;102242.75;;;8.16;69.65
64853;BME280;56050;55.558;-4.644;2023-02-19T01:29:52;102249.69;;;8.17;69.66
64853;BME280;56050;55.558;-4.644;2023-02-19T01:32:17;102249.38;;;8.19;69.66
64853;BME280;56050;55.558;-4.644;2023-02-19T01:34:43;102260.22;;;8.22;69.61
64853;BME280;56050;55.558;-4.644;2023-02-19T01:37:08;102261.00;;;8.23;69.69
64853;BME280;56050;55.558;-4.644;2023-02-19T01:39:38;102273.31;;;8.24;69.46
64853;BME280;56050;55.558;-4.644;2023-02-19T01:42:06;102275.19;;;8.23;69.58
64853;BME280;56050;55.558;-4.644;2023-02-19T01:47:01;102269.03;;;8.23;69.53
64853;BME280;56050;55.558;-4.644;2023-02-19T01:49:27;102271.72;;;8.23;69.37
64853;BME280;56050;55.558;-4.644;2023-02-19T01:52:12;102275.53;;;8.22;69.29
64853;BME280;56050;55.558;-4.644;2023-02-19T01:54:43;102272.88;;;8.22;69.46
64853;BME280;56050;55.558;-4.644;2023-02-19T01:57:13;102274.75;;;8.21;69.23
64853;BME280;56050;55.558;-4.644;2023-02-19T01:59:40;102260.09;;;8.19;69.27
64853;BME280;56050;55.558;-4.644;2023-02-19T02:02:07;102265.78;;;8.17;69.26
64853;BME280;56050;55.558;-4.644;2023-02-19T02:04:33;102270.25;;;8.13;69.27
64853;BME280;56050;55.558;-4.644;2023-02-19T02:07:01;102274.72;;;8.09;69.49
64853;BME280;56050;55.558;-4.644;2023-02-19T02:09:29;102280.75;;;8.06;69.29
64853;BME280;56050;55.558;-4.644;2023-02-19T02:12:13;102292.91;;;8.04;69.39
64853;BME280;56050;55.558;-4.644;2023-02-19T02:14:39;102299.06;;;8.04;69.39
64853;BME280;56050;55.558;-4.644;2023-02-19T02:28:48;102311.13;;;7.98;69.75
64853;BME280;56050;55.558;-4.644;2023-02-19T02:31:13;102320.44;;;8.01;69.95
64853;BME280;56050;55.558;-4.644;2023-02-19T02:33:57;102319.00;;;8.03;69.95
64853;BME280;56050;55.558;-4.644;2023-02-19T02:36:33;102318.66;;;8.05;70.01
64853;BME280;56050;55.558;-4.644;2023-02-19T02:39:01;102325.25;;;8.07;70.12
64853;BME280;56050;55.558;-4.644;2023-02-19T02:41:30;102325.69;;;8.09;70.03
64853;BME280;56050;55.558;-4.644;2023-02-19T02:43:56;102332.31;;;8.12;70.18
64853;BME280;56050;55.558;-4.644;2023-02-19T02:46:29;102333.56;;;8.14;70.17
64853;BME280;56050;55.558;-4.644;2023-02-19T02:49:02;102331.00;;;8.18;70.13
64853;BME280;56050;55.558;-4.644;2023-02-19T02:51:32;102336.06;;;8.19;70.14
64853;BME280;56050;55.558;-4.644;2023-02-19T02:56:53;102352.56;;;8.30;70.15
64853;BME280;56050;55.558;-4.644;2023-02-19T02:59:25;102352.78;;;8.37;70.22
64853;BME280;56050;55.558;-4.644;2023-02-19T03:10:17;102363.16;;;8.59;69.53
64853;BME280;56050;55.558;-4.644;2023-02-19T03:12:45;102352.41;;;8.59;69.54
64853;BME280;56050;55.558;-4.644;2023-02-19T03:15:35;102357.47;;;8.61;69.51
64853;BME280;56050;55.558;-4.644;2023-02-19T03:18:22;102350.97;;;8.62;69.63
64853;BME280;56050;55.558;-4.644;2023-02-19T03:21:07;102345.28;;;8.63;69.75
64853;BME280;56050;55.558;-4.644;2023-02-19T03:23:34;102343.81;;;8.66;69.71
64853;BME280;56050;55.558;-4.644;2023-02-19T03:26:20;102340.59;;;8.72;69.68
64853;BME280;56050;55.558;-4.644;2023-02-19T03:28:47;102344.97;;;8.77;69.75
64853;BME280;56050;55.558;-4.644;2023-02-19T03:31:34;102344.41;;;8.83;69.53
64853;BME280;56050;55.558;-4.644;2023-02-19T03:34:04;102343.41;;;8.88;69.47
64853;BME280;56050;55.558;-4.644;2023-02-19T03:36:40;102356.63;;;8.93;69.38
64853;BME280;56050;55.558;-4.644;2023-02-19T03:39:08;102349.00;;;8.95;69.30
64853;BME280;56050;55.558;-4.644;2023-02-19T03:46:55;102352.59;;;8.99;69.41
64853;BME280;56050;55.558;-4.644;2023-02-19T03:52:00;102342.97;;;8.98;69.49
64853;BME280;56050;55.558;-4.644;2023-02-19T03:55:11;102339.16;;;8.99;69.43
64853;BME280;56050;55.558;-4.644;2023-02-19T04:00:09;102335.38;;;9.00;69.46
64853;BME280;56050;55.558;-4.644;2023-02-19T04:02:46;102333.78;;;8.99;69.40
64853;BME280;56050;55.558;-4.644;2023-02-19T04:05:16;102329.19;;;9.00;69.46
64853;BME280;56050;55.558;-4.644;2023-02-19T04:07:45;102334.56;;;9.00;69.48
64853;BME280;56050;55.558;-4.644;2023-02-19T04:10:13;102339.94;;;9.00;69.49
64853;BME280;56050;55.558;-4.644;2023-02-19T04:12:42;102337.69;;;9.02;69.47
64853;BME280;56050;55.558;-4.644;2023-02-19T04:15:15;102350.34;;;9.01;69.33
64853;BME280;56050;55.558;-4.644;2023-02-19T04:17:45;102347.66;;;9.01;69.42
64853;BME280;56050;55.558;-4.644;2023-02-19T04:20:12;102348.00;;;9.00;69.44
64853;BME280;56050;55.558;-4.644;2023-02-19T04:22:39;102359.56;;;9.00;69.39
64853;BME280;56050;55.558;-4.644;2023-02-19T04:25:06;102355.41;;;9.03;69.46
64853;BME280;56050;55.558;-4.644;2023-02-19T04:27:35;102358.53;;;9.05;69.54
64853;BME280;56050;55.558;-4.644;2023-02-19T04:30:03;102353.16;;;9.05;69.48
64853;BME280;56050;55.558;-4.644;2023-02-19T04:32:29;102345.88;;;9.05;69.58
64853;BME280;56050;55.558;-4.644;2023-02-19T04:34:54;102344.06;;;9.09;69.47
64853;BME280;56050;55.558;-4.644;2023-02-19T04:37:19;102324.94;;;9.11;69.34
64853;BME280;56050;55.558;-4.644;2023-02-19T04:39:45;102325.72;;;9.11;69.52
64853;BME280;56050;55.558;-4.644;2023-02-19T04:42:10;102315.41;;;9.13;69.46
64853;BME280;56050;55.558;-4.644;2023-02-19T04:44:36;102303.09;;;9.12;69.24
64853;BME280;56050;55.558;-4.644;2023-02-19T04:47:01;102300.28;;;9.09;69.38
64853;BME280;56050;55.558;-4.644;2023-02-19T04:49:26;102302.88;;;9.05;69.49
64853;BME280;56050;55.558;-4.644;2023-02-19T04:51:52;102304.34;;;9.03;69.32
64853;BME280;56050;55.558;-4.644;2023-02-19T04:54:17;102305.00;;;9.00;69.52
64853;BME280;56050;55.558;-4.644;2023-02-19T04:56:42;102303.00;;;8.97;69.39
64853;BME280;56050;55.558;-4.644;2023-02-19T04:59:08;102317.88;;;8.94;69.37
64853;BME280;56050;55.558;-4.644;2023-02-19T05:01:34;102312.03;;;8.92;69.51
64853;BME280;56050;55.558;-4.644;2023-02-19T05:04:00;102305.44;;;8.90;69.55
64853;BME280;56050;55.558;-4.644;2023-02-19T05:06:25;102310.03;;;8.89;69.73
64853;BME280;56050;55.558;-4.644;2023-02-19T05:08:51;102295.81;;;8.89;69.89
64853;BME280;56050;55.558;-4.644;2023-02-19T05:11:17;102279.78;;;8.92;69.74
64853;BME280;56050;55.558;-4.644;2023-02-19T05:13:42;102270.63;;;8.93;69.78
64853;BME280;56050;55.558;-4.644;2023-02-19T05:16:12;102262.91;;;8.92;69.73
64853;BME280;56050;55.558;-4.644;2023-02-19T05:18:41;102261.44;;;8.94;69.76
64853;BME280;56050;55.558;-4.644;2023-02-19T05:21:07;102252.25;;;8.95;69.76
64853;BME280;56050;55.558;-4.644;2023-02-19T05:23:33;102244.66;;;8.97;69.91
64853;BME280;56050;55.558;-4.644;2023-02-19T05:25:58;102239.72;;;8.99;69.92
64853;BME280;56050;55.558;-4.644;2023-02-19T05:28:24;102252.47;;;9.02;69.77
64853;BME280;56050;55.558;-4.644;2023-02-19T05:30:56;102246.44;;;9.05;69.81
64853;BME280;56050;55.558;-4.644;2023-02-19T05:33:23;102247.97;;;9.06;69.76
64853;BME280;56050;55.558;-4.644;2023-02-19T05:35:51;102251.88;;;9.09;69.90
64853;BME280;56050;55.558;-4.644;2023-02-19T05:38:18;102265.00;;;9.10;69.83
64853;BME280;56050;55.558;-4.644;2023-02-19T05:40:44;102264.78;;;9.15;69.92
64853;BME280;56050;55.558;-4.644;2023-02-19T05:43:11;102262.53;;;9.17;70.06
64853;BME280;56050;55.558;-4.644;2023-02-19T05:45:36;102272.59;;;9.20;70.24
64853;BME280;56050;55.558;-4.644;2023-02-19T05:48:03;102259.59;;;9.22;70.37
64853;BME280;56050;55.558;-4.644;2023-02-19T05:50:31;102262.41;;;9.26;70.34
64853;BME280;56050;55.558;-4.644;2023-02-19T05:52:59;102280.53;;;9.29;70.64
64853;BME280;56050;55.558;-4.644;2023-02-19T05:55:25;102300.59;;;9.31;70.35
64853;BME280;56050;55.558;-4.644;2023-02-19T05:57:51;102301.50;;;9.35;70.51
64853;BME280;56050;55.558;-4.644;2023-02-19T06:00:17;102294.78;;;9.41;70.67
64853;BME280;56050;55.558;-4.644;2023-02-19T06:02:43;102280.97;;;9.43;70.73
64853;BME280;56050;55.558;-4.644;2023-02-19T06:05:09;102282.19;;;9.45;70.59
64853;BME280;56050;55.558;-4.644;2023-02-19T06:07:35;102278.41;;;9.47;70.83
64853;BME280;56050;55.558;-4.644;2023-02-19T06:10:04;102285.31;;;9.48;70.94
64853;BME280;56050;55.558;-4.644;2023-02-19T06:12:30;102280.84;;;9.52;70.90
64853;BME280;56050;55.558;-4.644;2023-02-19T06:14:56;102266.28;;;9.53;70.96
64853;BME280;56050;55.558;-4.644;2023-02-19T06:17:21;102256.38;;;9.57;70.90
64853;BME280;56050;55.558;-4.644;2023-02-19T06:19:47;102247.19;;;9.58;70.95
64853;BME280;56050;55.558;-4.644;2023-02-19T06:22:14;102251.13;;;9.60;70.97
64853;BME280;56050;55.558;-4.644;2023-02-19T06:24:40;102251.22;;;9.64;71.11
64853;BME280;56050;55.558;-4.644;2023-02-19T06:27:06;102253.91;;;9.64;71.03
64853;BME280;56050;55.558;-4.644;2023-02-19T06:29:32;102242.00;;;9.65;71.03
64853;BME280;56050;55.558;-4.644;2023-02-19T06:31:58;102241.22;;;9.64;71.00
64853;BME280;56050;55.558;-4.644;2023-02-19T06:34:24;102233.94;;;9.65;70.91
64853;BME280;56050;55.558;-4.644;2023-02-19T06:36:49;102238.53;;;9.64;70.95
64853;BME280;56050;55.558;-4.644;2023-02-19T06:39:15;102245.47;;;9.65;71.01
64853;BME280;56050;55.558;-4.644;2023-02-19T06:41:40;102249.75;;;9.66;71.13
64853;BME280;56050;55.558;-4.644;2023-02-19T06:44:06;102246.59;;;9.64;71.14
64853;BME280;56050;55.558;-4.644;2023-02-19T06:46:31;102243.59;;;9.66;71.28
64853;BME280;56050;55.558;-4.644;2023-02-19T06:48:57;102254.34;;;9.66;71.15
64853;BME280;56050;55.558;-4.644;2023-02-19T06:51:22;102251.31;;;9.67;71.08
64853;BME280;56050;55.558;-4.644;2023-02-19T06:53:51;102253.66;;;9.69;71.21
64853;BME280;56050;55.558;-4.644;2023-02-19T06:58:56;102252.53;;;9.70;71.23
64853;BME280;56050;55.558;-4.644;2023-02-19T07:01:24;102250.28;;;9.72;71.29
64853;BME280;56050;55.558;-4.644;2023-02-19T07:03:50;102254.53;;;9.73;71.36
64853;BME280;56050;55.558;-4.644;2023-02-19T07:06:17;102267.97;;;9.73;71.45
64853;BME280;56050;55.558;-4.644;2023-02-19T07:08:43;102273.03;;;9.74;71.51
64853;BME280;56050;55.558;-4.644;2023-02-19T07:11:08;102273.03;;;9.74;71.42
64853;BME280;56050;55.558;-4.644;2023-02-19T07:13:34;102275.06;;;9.77;71.45
64853;BME280;56050;55.558;-4.644;2023-02-19T07:16:02;102263.50;;;9.77;71.55
64853;BME280;56050;55.558;-4.644;2023-02-19T07:18:28;102260.81;;;9.77;71.65
64853;BME280;56050;55.558;-4.644;2023-02-19T07:20:54;102268.19;;;9.80;71.48
64853;BME280;56050;55.558;-4.644;2023-02-19T07:23:20;102275.59;;;9.83;71.54
64853;BME280;56050;55.558;-4.644;2023-02-19T07:25:45;102268.72;;;9.85;71.75
64853;BME280;56050;55.558;-4.644;2023-02-19T07:28:11;102274.88;;;9.86;71.75
64853;BME280;56050;55.558;-4.644;2023-02-19T07:30:36;102272.97;;;9.86;71.63
64853;BME280;56050;55.558;-4.644;2023-02-19T07:33:02;102259.19;;;9.88;71.66
64853;BME280;56050;55.558;-4.644;2023-02-19T07:35:27;102269.28;;;9.91;71.62
64853;BME280;56050;55.558;-4.644;2023-02-19T07:37:53;102261.63;;;9.93;71.60
64853;BME280;56050;55.558;-4.644;2023-02-19T07:40:18;102247.38;;;9.92;71.51
64853;BME280;56050;55.558;-4.644;2023-02-19T07:42:44;102258.94;;;9.93;71.60
64853;BME280;56050;55.558;-4.644;2023-02-19T07:45:09;102257.34;;;9.92;71.56
64853;BME280;56050;55.558;-4.644;2023-02-19T07:47:35;102260.84;;;9.92;71.63
64853;BME280;56050;55.558;-4.644;2023-02-19T07:50:00;102259.25;;;9.91;71.56
64853;BME280;56050;55.558;-4.644;2023-02-19T07:52:26;102255.81;;;9.91;71.59
64853;BME280;56050;55.558;-4.644;2023-02-19T07:54:52;102245.81;;;9.91;71.78
64853;BME280;56050;55.558;-4.644;2023-02-19T07:57:17;102254.34;;;9.93;71.65
64853;BME280;56050;55.558;-4.644;2023-02-19T07:59:43;102248.59;;;9.95;71.73
64853;BME280;56050;55.558;-4.644;2023-02-19T08:02:16;102259.38;;;9.95;71.67
64853;BME280;56050;55.558;-4.644;2023-02-19T08:05:01;102261.72;;;9.96;71.84
64853;BME280;56050;55.558;-4.644;2023-02-19T08:07:34;102258.59;;;9.94;72.08
64853;BME280;56050;55.558;-4.644;2023-02-19T08:10:01;102265.19;;;9.97;71.96
64853;BME280;56050;55.558;-4.644;2023-02-19T08:12:47;102271.03;;;9.99;72.18
64853;BME280;56050;55.558;-4.644;2023-02-19T08:15:37;102279.09;;;9.99;72.04
64853;BME280;56050;55.558;-4.644;2023-02-19T08:18:02;102270.56;;;9.97;71.97
64853;BME280;56050;55.558;-4.644;2023-02-19T08:20:28;102266.66;;;9.94;71.96
64853;BME280;56050;55.558;-4.644;2023-02-19T08:22:53;102256.69;;;9.95;72.00
64853;BME280;56050;55.558;-4.644;2023-02-19T08:25:18;102244.34;;;9.94;72.07
64853;BME280;56050;55.558;-4.644;2023-02-19T08:27:44;102250.84;;;9.93;72.06
64853;BME280;56050;55.558;-4.644;2023-02-19T08:30:10;102251.66;;;9.93;72.02
64853;BME280;56050;55.558;-4.644;2023-02-19T08:32:35;102250.84;;;9.93;72.10
64853;BME280;56050;55.558;-4.644;2023-02-19T08:35:01;102251.28;;;9.95;72.08
64853;BME280;56050;55.558;-4.644;2023-02-19T08:37:26;102249.03;;;9.97;71.94
64853;BME280;56050;55.558;-4.644;2023-02-19T08:39:52;102258.69;;;9.98;71.91
64853;BME280;56050;55.558;-4.644;2023-02-19T08:42:17;102261.38;;;9.98;72.23
64853;BME280;56050;55.558;-4.644;2023-02-19T08:44:43;102269.88;;;10.00;72.10
64853;BME280;56050;55.558;-4.644;2023-02-19T08:47:08;102267.66;;;10.02;72.09
64853;BME280;56050;55.558;-4.644;2023-02-19T08:49:33;102266.97;;;10.05;72.21
64853;BME280;56050;55.558;-4.644;2023-02-19T08:51:59;102267.03;;;10.09;72.22
64853;BME280;56050;55.558;-4.644;2023-02-19T08:54:24;102264.91;;;10.14;72.17
64853;BME280;56050;55.558;-4.644;2023-02-19T08:56:50;102266.91;;;10.17;72.12
64853;BME280;56050;55.558;-4.644;2023-02-19T08:59:15;102255.13;;;10.22;72.08
64853;BME280;56050;55.558;-4.644;2023-02-19T09:01:41;102236.69;;;10.24;72.14
64853;BME280;56050;55.558;-4.644;2023-02-19T09:04:10;102230.53;;;10.23;72.07
64853;BME280;56050;55.558;-4.644;2023-02-19T09:06:36;102250.16;;;10.24;72.37
64853;BME280;56050;55.558;-4.644;2023-02-19T09:09:02;102255.19;;;10.25;72.31
64853;BME280;56050;55.558;-4.644;2023-02-19T09:11:27;102269.56;;;10.29;72.29
64853;BME280;56050;55.558;-4.644;2023-02-19T09:13:55;102292.75;;;10.34;72.18
64853;BME280;56050;55.558;-4.644;2023-02-19T09:16:20;102298.66;;;10.39;72.09
64853;BME280;56050;55.558;-4.644;2023-02-19T09:18:46;102295.63;;;10.41;72.17
64853;BME280;56050;55.558;-4.644;2023-02-19T09:21:11;102308.75;;;10.42;72.08
64853;BME280;56050;55.558;-4.644;2023-02-19T09:23:37;102311.88;;;10.44;72.21
64853;BME280;56050;55.558;-4.644;2023-02-19T09:26:04;102310.75;;;10.45;72.04
64853;BME280;56050;55.558;-4.644;2023-02-19T09:28:31;102311.19;;;10.47;72.15
64853;BME280;56050;55.558;-4.644;2023-02-19T09:31:03;102323.53;;;10.48;72.09
64853;BME280;56050;55.558;-4.644;2023-02-19T09:33:29;102308.47;;;10.47;72.04
64853;BME280;56050;55.558;-4.644;2023-02-19T09:35:58;102322.75;;;10.48;72.07
64853;BME280;56050;55.558;-4.644;2023-02-19T09:38:23;102316.25;;;10.49;71.99
64853;BME280;56050;55.558;-4.644;2023-02-19T09:40:49;102305.09;;;10.50;72.18
64853;BME280;56050;55.558;-4.644;2023-02-19T09:43:18;102306.69;;;10.51;71.90
64853;BME280;56050;55.558;-4.644;2023-02-19T09:45:44;102319.00;;;10.52;71.98
64853;BME280;56050;55.558;-4.644;2023-02-19T09:48:10;102313.28;;;10.54;72.09
64853;BME280;56050;55.558;-4.644;2023-02-19T09:50:40;102299.81;;;10.54;72.01
64853;BME280;56050;55.558;-4.644;2023-02-19T09:53:26;102295.22;;;10.54;72.14
64853;BME280;56050;55.558;-4.644;2023-02-19T09:55:53;102299.53;;;10.59;71.97
64853;BME280;56050;55.558;-4.644;2023-02-19T09:58:34;102305.72;;;10.59;72.04
64853;BME280;56050;55.558;-4.644;2023-02-19T10:01:02;102305.81;;;10.63;71.97
64853;BME280;56050;55.558;-4.644;2023-02-19T10:03:33;102312.34;;;10.62;72.20
64853;BME280;56050;55.558;-4.644;2023-02-19T10:06:07;102317.72;;;10.62;71.97
64853;BME280;56050;55.558;-4.644;2023-02-19T10:08:35;102309.63;;;10.62;72.01
64853;BME280;56050;55.558;-4.644;2023-02-19T10:11:02;102312.75;;;10.64;71.93
64853;BME280;56050;55.558;-4.644;2023-02-19T10:13:33;102308.16;;;10.65;72.00
64853;BME280;56050;55.558;-4.644;2023-02-19T10:16:01;102302.41;;;10.66;71.98
64853;BME280;56050;55.558;-4.644;2023-02-19T10:18:34;102319.38;;;10.67;72.04
64853;BME280;56050;55.558;-4.644;2023-02-19T10:21:00;102314.75;;;10.67;72.14
64853;BME280;56050;55.558;-4.644;2023-02-19T10:23:26;102311.72;;;10.69;72.15
64853;BME280;56050;55.558;-4.644;2023-02-19T10:25:54;102304.78;;;10.68;72.02
64853;BME280;56050;55.558;-4.644;2023-02-19T10:28:24;102304.78;;;10.68;72.08
64853;BME280;56050;55.558;-4.644;2023-02-19T10:30:54;102306.78;;;10.71;72.10
64853;BME280;56050;55.558;-4.644;2023-02-19T10:33:21;102308.69;;;10.70;72.25
64853;BME280;56050;55.558;-4.644;2023-02-19T10:36:02;102313.72;;;10.72;72.00
64853;BME280;56050;55.558;-4.644;2023-02-19T10:38:34;102303.38;;;10.74;71.95
64853;BME280;56050;55.558;-4.644;2023-02-19T10:41:06;102307.56;;;10.71;72.02
64853;BME280;56050;55.558;-4.644;2023-02-19T10:43:37;102324.50;;;10.72;71.99
64853;BME280;56050;55.558;-4.644;2023-02-19T10:48:49;102327.66;;;10.74;72.11
64853;BME280;56050;55.558;-4.644;2023-02-19T10:51:17;102329.19;;;10.75;71.94
64853;BME280;56050;55.558;-4.644;2023-02-19T10:53:50;102330.75;;;10.76;72.01
64853;BME280;56050;55.558;-4.644;2023-02-19T10:56:28;102333.09;;;10.77;71.99
64853;BME280;56050;55.558;-4.644;2023-02-19T11:01:55;102325.81;;;10.78;71.91
64853;BME280;56050;55.558;-4.644;2023-02-19T11:04:22;102323.56;;;10.80;71.88
64853;BME280;56050;55.558;-4.644;2023-02-19T11:06:48;102318.16;;;10.80;71.92
64853;BME280;56050;55.558;-4.644;2023-02-19T11:09:37;102299.38;;;10.83;72.01
64853;BME280;56050;55.558;-4.644;2023-02-19T11:12:03;102284.41;;;10.86;71.78
64853;BME280;56050;55.558;-4.644;2023-02-19T11:14:31;102273.19;;;10.84;71.89
64853;BME280;56050;55.558;-4.644;2023-02-19T11:16:59;102278.59;;;10.84;71.83
64853;BME280;56050;55.558;-4.644;2023-02-19T11:19:28;102256.59;;;10.82;72.02
64853;BME280;56050;55.558;-4.644;2023-02-19T11:21:57;102247.81;;;10.85;71.96
64853;BME280;56050;55.558;-4.644;2023-02-19T11:24:30;102240.50;;;10.85;71.99
64853;BME280;56050;55.558;-4.644;2023-02-19T11:27:00;102240.56;;;10.89;72.01
64853;BME280;56050;55.558;-4.644;2023-02-19T11:29:27;102242.16;;;10.90;72.08
64853;BME280;56050;55.558;-4.644;2023-02-19T11:32:25;102233.69;;;10.91;72.15
64853;BME280;56050;55.558;-4.644;2023-02-19T11:34:51;102244.19;;;10.96;72.05
64853;BME280;56050;55.558;-4.644;2023-02-19T11:37:20;102246.19;;;10.99;72.07
64853;BME280;56050;55.558;-4.644;2023-02-19T11:39:50;102233.59;;;11.03;72.18
64853;BME280;56050;55.558;-4.644;2023-02-19T11:53:15;102202.84;;;11.08;71.86
64853;BME280;56050;55.558;-4.644;2023-02-19T12:01:42;102189.03;;;11.09;71.88
64853;BME280;56050;55.558;-4.644;2023-02-19T12:16:58;102158.66;;;11.12;71.64
64853;BME280;56050;55.558;-4.644;2023-02-19T12:22:38;102117.06;;;11.13;71.69
64853;BME280;56050;55.558;-4.644;2023-02-19T12:31:22;102100.38;;;11.27;71.36
64853;BME280;56050;55.558;-4.644;2023-02-19T12:33:42;102098.53;;;11.31;71.29
64853;BME280;56050;55.558;-4.644;2023-02-19T12:44:38;102097.00;;;11.53;70.93
64853;BME280;56050;55.558;-4.644;2023-02-19T12:47:06;102089.69;;;11.53;70.85
64853;BME280;56050;55.558;-4.644;2023-02-19T12:49:43;102092.38;;;11.53;70.79
64853;BME280;56050;55.558;-4.644;2023-02-19T12:52:24;102097.41;;;11.55;70.63
64853;BME280;56050;55.558;-4.644;2023-02-19T12:54:53;102078.88;;;11.53;70.52
64853;BME280;56050;55.558;-4.644;2023-02-19T12:57:23;102051.13;;;11.53;70.24
64853;BME280;56050;55.558;-4.644;2023-02-19T13:08:49;102075.81;;;11.55;70.05
64853;BME280;56050;55.558;-4.644;2023-02-19T13:11:22;102056.94;;;11.55;70.05
64853;BME280;56050;55.558;-4.644;2023-02-19T13:16:41;102033.41;;;11.55;70.07
64853;BME280;56050;55.558;-4.644;2023-02-19T13:19:09;102041.19;;;11.57;70.12
64853;BME280;56050;55.558;-4.644;2023-02-19T13:21:39;102037.72;;;11.60;69.91
64853;BME280;56050;55.558;-4.644;2023-02-19T13:24:27;102033.91;;;11.61;69.85
64853;BME280;56050;55.558;-4.644;2023-02-19T13:27:35;102000.38;;;11.62;69.92
64853;BME280;56050;55.558;-4.644;2023-02-19T13:37:40;102009.28;;;11.66;69.65
64853;BME280;56050;55.558;-4.644;2023-02-19T13:40:36;102015.47;;;11.66;69.82
64853;BME280;56050;55.558;-4.644;2023-02-19T13:43:05;102012.78;;;11.66;69.63
64853;BME280;56050;55.558;-4.644;2023-02-19T13:45:42;102015.84;;;11.65;69.58
64853;BME280;56050;55.558;-4.644;2023-02-19T13:50:39;102047.81;;;11.63;69.48
64853;BME280;56050;55.558;-4.644;2023-02-19T13:59:23;102020.78;;;11.59;69.63
64853;BME280;56050;55.558;-4.644;2023-02-19T14:04:21;101994.19;;;11.61;69.50
64853;BME280;56050;55.558;-4.644;2023-02-19T14:12:48;102003.88;;;11.62;69.66
64853;BME280;56050;55.558;-4.644;2023-02-19T14:14:53;101994.19;;;11.61;69.79
64853;BME280;56050;55.558;-4.644;2023-02-19T14:17:37;101998.47;;;11.62;69.78
64853;BME280;56050;55.558;-4.644;2023-02-19T14:22:47;102012.72;;;11.63;69.71
64853;BME280;56050;55.558;-4.644;2023-02-19T14:25:45;102018.50;;;11.61;69.80
64853;BME280;56050;55.558;-4.644;2023-02-19T14:28:27;102010.03;;;11.63;69.77
64853;BME280;56050;55.558;-4.644;2023-02-19T14:33:37;101983.09;;;11.66;69.85
64853;BME280;56050;55.558;-4.644;2023-02-19T14:38:54;101981.69;;;11.72;69.61
64853;BME280;56050;55.558;-4.644;2023-02-19T14:41:21;101982.09;;;11.74;69.67
64853;BME280;56050;55.558;-4.644;2023-02-19T14:43:49;101989.41;;;11.74;69.78
64853;BME280;56050;55.558;-4.644;2023-02-19T14:46:35;101991.34;;;11.73;69.78
64853;BME280;56050;55.558;-4.644;2023-02-19T14:49:12;101986.28;;;11.72;69.88
64853;BME280;56050;55.558;-4.644;2023-02-19T14:51:41;101983.59;;;11.72;69.87
64853;BME280;56050;55.558;-4.644;2023-02-19T14:54:16;101964.69;;;11.72;69.80
64853;BME280;56050;55.558;-4.644;2023-02-19T14:56:46;101955.47;;;11.73;69.68
64853;BME280;56050;55.558;-4.644;2023-02-19T15:01:38;101922.28;;;11.72;69.91
64853;BME280;56050;55.558;-4.644;2023-02-19T15:04:05;101909.97;;;11.75;69.89
64853;BME280;56050;55.558;-4.644;2023-02-19T15:06:32;101917.28;;;11.74;69.80
64853;BME280;56050;55.558;-4.644;2023-02-19T15:09:02;101897.63;;;11.74;69.73
64853;BME280;56050;55.558;-4.644;2023-02-19T15:11:30;101877.59;;;11.75;69.75
64853;BME280;56050;55.558;-4.644;2023-02-19T15:13:59;101876.81;;;11.74;69.73